Time;durP1;ratioP1;P1;durP2;ratioP2;P2;SDS_P1;SDS_P2;PMS_P1;PMS_P2;Temp;Humidity;BMP_temperature;BMP_pressure;BME280_temperature;BME280_humidity;BME280_pressure;Samples;Min_cycle;Max_cycle;Signal;HPM_P1;HPM_P2
2023/11/08 00:00:33;;;;;;;9.20;7.20;;;;;;;10.00;100.00;100250.02;88278;283;138492;-70
2023/11/08 00:02:35;;;;;;;9.10;6.60;;;;;;;10.01;100.00;100244.39;88602;281;22580;-71
2023/11/08 00:04:38;;;;;;;9.60;6.50;;;;;;;10.00;100.00;100247.46;88361;276;136983;-71
2023/11/08 00:06:40;;;;;;;8.80;6.70;;;;;;;10.00;100.00;100254.08;88496;281;24135;-72
2023/11/08 00:08:42;;;;;;;11.50;7.80;;;;;;;9.99;100.00;100257.07;88358;274;137180;-70
2023/11/08 00:10:44;;;;;;;8.40;6.70;;;;;;;9.98;100.00;100262.63;88513;274;25777;-72
2023/11/08 00:12:45;;;;;;;13.90;7.40;;;;;;;9.98;100.00;100263.73;88544;281;137957;-68
2023/11/08 00:14:47;;;;;;;14.10;8.00;;;;;;;9.96;100.00;100266.45;88521;274;25204;-71
2023/11/08 00:16:49;;;;;;;9.90;8.20;;;;;;;9.94;100.00;100259.18;88364;274;137259;-73
2023/11/08 00:18:51;;;;;;;11.40;8.50;;;;;;;9.93;100.00;100256.42;88551;281;24014;-71
2023/11/08 00:20:53;;;;;;;11.20;8.80;;;;;;;9.91;100.00;100255.95;88413;277;137154;-71
2023/11/08 00:22:57;;;;;;;9.40;7.60;;;;;;;9.91;100.00;100250.88;88356;283;23896;-71
2023/11/08 00:25:00;;;;;;;10.30;7.90;;;;;;;9.89;100.00;100251.75;88476;274;138175;-72
2023/11/08 00:27:02;;;;;;;10.50;7.70;;;;;;;9.90;100.00;100245.86;88499;279;22598;-73
2023/11/08 00:29:04;;;;;;;12.10;7.40;;;;;;;9.91;100.00;100246.44;88191;282;136892;-70
2023/11/08 00:31:07;;;;;;;10.20;7.00;;;;;;;9.92;100.00;100241.53;88319;281;26177;-72
2023/11/08 00:33:08;;;;;;;12.50;8.00;;;;;;;9.93;100.00;100241.92;88447;281;137257;-70
2023/11/08 00:35:10;;;;;;;7.10;6.40;;;;;;;9.94;100.00;100239.29;88397;281;25240;-69
2023/11/08 00:37:12;;;;;;;14.00;7.00;;;;;;;9.93;100.00;100232.46;88410;274;137940;-71
2023/11/08 00:39:15;;;;;;;11.10;6.90;;;;;;;9.93;100.00;100231.36;88377;278;22545;-72
2023/11/08 00:41:17;;;;;;;10.80;6.70;;;;;;;9.92;100.00;100225.89;88270;281;137134;-69
2023/11/08 00:43:19;;;;;;;9.20;7.00;;;;;;;9.90;100.00;100220.30;88469;281;22531;-72
2023/11/08 00:45:22;;;;;;;7.30;5.40;;;;;;;9.88;100.00;100215.01;88382;274;137153;-69
2023/11/08 00:47:24;;;;;;;9.10;7.00;;;;;;;9.86;100.00;100214.52;88316;283;22571;-70
2023/11/08 00:49:27;;;;;;;7.50;6.10;;;;;;;9.84;100.00;100218.52;88446;278;136987;-69
2023/11/08 00:51:31;;;;;;;14.00;6.80;;;;;;;9.84;100.00;100216.95;88460;279;24030;-69
2023/11/08 00:53:33;;;;;;;10.80;7.70;;;;;;;9.83;100.00;100213.00;88380;281;137042;-70
2023/11/08 00:58:06;;;;;;;9.80;6.50;;;;;;;9.72;100.00;100216.56;86894;304;602744;-72
2023/11/08 01:00:08;;;;;;;10.60;7.80;;;;;;;9.65;100.00;100216.35;87560;292;136506;-69
2023/11/08 01:02:10;;;;;;;10.00;7.80;;;;;;;9.61;100.00;100212.36;87869;290;22541;-71
2023/11/08 01:04:12;;;;;;;11.70;7.40;;;;;;;9.56;100.00;100210.14;88109;288;136653;-67
2023/11/08 01:06:14;;;;;;;11.80;7.60;;;;;;;9.54;100.00;100207.23;88472;287;25207;-70
2023/11/08 01:08:16;;;;;;;11.40;8.60;;;;;;;9.52;100.00;100207.58;88036;287;137500;-70
2023/11/08 01:10:21;;;;;;;11.50;7.50;;;;;;;9.53;100.00;100207.15;88129;287;22472;-70
2023/11/08 01:12:23;;;;;;;10.00;6.90;;;;;;;9.52;100.00;100205.33;87929;286;446994;-70
2023/11/08 01:14:25;;;;;;;9.90;7.60;;;;;;;9.49;100.00;100202.92;88450;278;23719;-70
2023/11/08 01:16:28;;;;;;;7.40;6.00;;;;;;;9.44;100.00;100196.38;88394;274;136562;-70
2023/11/08 01:18:32;;;;;;;9.50;6.80;;;;;;;9.39;100.00;100188.83;88597;274;22644;-71
2023/11/08 01:20:34;;;;;;;7.80;6.80;;;;;;;9.35;100.00;100188.23;88502;282;137171;-69
2023/11/08 01:22:36;;;;;;;15.50;7.80;;;;;;;9.29;100.00;100189.60;88352;282;22524;-69
2023/11/08 01:24:41;;;;;;;16.30;8.00;;;;;;;9.25;100.00;100184.97;88282;276;137525;-72
2023/11/08 01:26:43;;;;;;;8.40;7.50;;;;;;;9.22;100.00;100183.44;88517;273;25118;-70
2023/11/08 01:28:45;;;;;;;13.00;8.70;;;;;;;9.19;100.00;100181.06;88618;281;136829;-70
2023/11/08 01:30:48;;;;;;;11.50;8.00;;;;;;;9.16;100.00;100181.57;88461;274;22688;-70
2023/11/08 01:32:50;;;;;;;13.80;7.80;;;;;;;9.14;100.00;100183.75;88411;281;136687;-69
2023/11/08 01:34:52;;;;;;;13.90;8.30;;;;;;;9.12;100.00;100181.70;88562;281;22618;-66
2023/11/08 01:36:54;;;;;;;12.00;8.80;;;;;;;9.08;100.00;100174.59;88586;274;136890;-67
2023/11/08 01:38:58;;;;;;;13.30;8.10;;;;;;;9.09;100.00;100178.05;88476;275;22591;-69
2023/11/08 01:41:00;;;;;;;11.40;8.70;;;;;;;9.08;100.00;100177.19;88574;281;137007;-70
2023/11/08 01:43:02;;;;;;;11.10;8.80;;;;;;;9.08;100.00;100177.06;88591;274;22537;-69
2023/11/08 01:45:05;;;;;;;14.30;9.10;;;;;;;9.08;100.00;100178.36;88484;281;137809;-72
2023/11/08 01:47:07;;;;;;;10.70;8.60;;;;;;;9.07;100.00;100177.46;88425;279;23706;-68
2023/11/08 01:49:09;;;;;;;11.70;9.30;;;;;;;9.08;100.00;100182.74;88262;279;137109;-69
2023/11/08 01:51:12;;;;;;;12.90;9.10;;;;;;;9.05;100.00;100180.23;88458;279;22773;-70
2023/11/08 01:53:14;;;;;;;13.40;9.90;;;;;;;9.05;100.00;100183.48;88377;281;137119;-70
2023/11/08 01:55:16;;;;;;;14.60;8.90;;;;;;;9.02;100.00;100183.64;88420;278;24662;-70
2023/11/08 01:57:20;;;;;;;13.80;9.70;;;;;;;8.99;100.00;100181.15;88329;277;138209;-70
2023/11/08 01:59:24;;;;;;;13.70;10.00;;;;;;;8.98;100.00;100178.39;88293;275;22543;-70
2023/11/08 02:01:26;;;;;;;12.70;9.30;;;;;;;8.99;100.00;100177.30;88311;279;138926;-70
2023/11/08 02:03:28;;;;;;;16.00;8.80;;;;;;;8.98;100.00;100181.42;88261;283;25103;-68
2023/11/08 02:05:33;;;;;;;12.30;8.90;;;;;;;8.99;100.00;100182.65;88303;274;137734;-69
2023/11/08 02:07:35;;;;;;;13.30;9.50;;;;;;;8.97;100.00;100181.94;88485;282;22527;-69
2023/11/08 02:09:37;;;;;;;12.50;9.60;;;;;;;8.97;100.00;100183.73;88179;275;137777;-70
2023/11/08 02:11:41;;;;;;;11.10;8.80;;;;;;;8.96;100.00;100176.52;88446;279;22695;-69
2023/11/08 02:13:43;;;;;;;11.30;9.80;;;;;;;8.96;100.00;100171.70;88416;275;137017;-68
2023/11/08 02:15:44;;;;;;;15.80;9.50;;;;;;;8.96;100.00;100169.04;88315;277;22540;-70
2023/11/08 02:17:48;;;;;;;17.90;9.20;;;;;;;8.95;100.00;100164.00;88477;274;136860;-68
2023/11/08 02:19:51;;;;;;;11.50;9.10;;;;;;;8.91;100.00;100159.80;88505;280;22556;-69
2023/11/08 02:21:52;;;;;;;11.60;8.90;;;;;;;8.87;100.00;100160.48;88221;282;137200;-68
2023/11/08 02:23:54;;;;;;;14.00;9.20;;;;;;;8.84;100.00;100158.67;88383;278;25213;-69
2023/11/08 02:25:57;;;;;;;10.20;8.30;;;;;;;8.83;100.00;100160.91;88420;281;138357;-69
2023/11/08 02:27:59;;;;;;;11.70;10.30;;;;;;;8.84;100.00;100158.54;88478;281;25168;-68
2023/11/08 02:30:03;;;;;;;13.30;9.40;;;;;;;8.83;100.00;100164.49;88368;275;136526;-68
2023/11/08 02:32:08;;;;;;;11.40;8.70;;;;;;;8.83;100.00;100162.46;88640;281;137107;-69
2023/11/08 02:34:11;;;;;;;10.50;8.20;;;;;;;8.84;100.00;100156.95;88753;281;23838;-70
2023/11/08 02:36:13;;;;;;;12.40;9.20;;;;;;;8.83;100.00;100157.31;88337;281;137078;-70
2023/11/08 02:38:16;;;;;;;11.20;9.10;;;;;;;8.84;100.00;100152.10;88569;275;25205;-70
2023/11/08 02:40:18;;;;;;;13.00;9.90;;;;;;;8.84;100.00;100157.38;88296;276;138034;-70
2023/11/08 02:42:19;;;;;;;13.80;9.60;;;;;;;8.84;100.00;100161.98;88434;282;25118;-69
2023/11/08 02:44:21;;;;;;;13.40;8.90;;;;;;;8.85;100.00;100163.34;88326;275;136804;-69
2023/11/08 02:46:23;;;;;;;14.90;9.40;;;;;;;8.85;100.00;100163.96;88398;282;22539;-70
2023/11/08 02:48:25;;;;;;;13.20;8.60;;;;;;;8.84;100.00;100166.73;88501;275;136687;-67
2023/11/08 02:50:28;;;;;;;14.30;8.80;;;;;;;8.84;100.00;100164.52;88352;279;22536;-68
2023/11/08 02:52:30;;;;;;;12.30;9.00;;;;;;;8.84;100.00;100161.86;88348;279;138018;-67
2023/11/08 02:54:32;;;;;;;10.70;8.50;;;;;;;8.82;100.00;100158.42;88500;275;26344;-70
2023/11/08 02:56:40;;;;;;;12.60;8.60;;;;;;;8.78;100.00;100158.63;88646;281;136654;-71
2023/11/08 02:58:43;;;;;;;11.40;8.70;;;;;;;8.75;100.00;100158.74;88586;280;25287;-70
2023/11/08 03:00:49;;;;;;;14.60;8.90;;;;;;;8.72;100.00;100159.48;88343;275;136722;-68
2023/11/08 03:02:53;;;;;;;10.50;9.20;;;;;;;8.69;100.00;100157.75;88685;277;22764;-71
2023/11/08 03:04:57;;;;;;;;;;;;;;;8.67;100.00;100160.45;88451;279;136375;-70
2023/11/08 03:06:59;;;;;;;11.30;8.30;;;;;;;8.63;100.00;100161.05;88555;274;22541;-69
2023/11/08 03:09:00;;;;;;;11.90;8.10;;;;;;;8.62;100.00;100159.60;88353;274;138104;-69
2023/11/08 03:11:02;;;;;;;15.40;9.50;;;;;;;8.61;100.00;100157.49;88435;274;22530;-69
2023/11/08 03:13:05;;;;;;;12.30;9.30;;;;;;;8.61;100.00;100155.36;88470;276;136533;-71
2023/11/08 03:15:08;;;;;;;10.20;8.90;;;;;;;8.59;100.00;100144.89;88629;278;22532;-70
2023/11/08 03:17:09;;;;;;;11.00;8.60;;;;;;;8.58;100.00;100132.31;88625;277;136903;-71
2023/11/08 03:19:11;;;;;;;10.80;9.20;;;;;;;8.56;100.00;100129.11;88493;277;24018;-72
2023/11/08 03:21:13;;;;;;;12.90;9.60;;;;;;;8.54;100.00;100119.42;88474;275;137396;-73
2023/11/08 03:23:18;;;;;;;11.60;9.00;;;;;;;8.53;100.00;100119.17;88602;280;22513;-69
2023/11/08 03:25:22;;;;;;;15.30;9.60;;;;;;;8.52;100.00;100126.02;88585;280;136847;-68
2023/11/08 03:27:24;;;;;;;12.70;9.30;;;;;;;8.53;100.00;100127.53;88566;277;24058;-71
2023/11/08 03:29:25;;;;;;;13.90;9.10;;;;;;;8.52;100.00;100123.23;88537;280;136715;-69
2023/11/08 03:31:29;;;;;;;10.50;9.10;;;;;;;8.53;100.00;100122.79;88473;282;25265;-70
2023/11/08 03:33:31;;;;;;;10.60;9.20;;;;;;;8.55;100.00;100123.08;88407;280;137716;-71
2023/11/08 03:35:33;;;;;;;12.00;8.90;;;;;;;8.57;100.00;100123.15;88630;277;22536;-71
2023/11/08 03:37:35;;;;;;;16.50;12.00;;;;;;;8.61;100.00;100123.79;88660;280;136945;-73
2023/11/08 03:39:37;;;;;;;18.70;12.30;;;;;;;8.63;100.00;100119.77;88508;281;23719;-71
2023/11/08 03:41:39;;;;;;;18.30;12.80;;;;;;;8.66;100.00;100114.30;88343;278;138276;-70
2023/11/08 03:43:41;;;;;;;17.00;13.20;;;;;;;8.68;100.00;100113.42;88448;281;22542;-71
2023/11/08 03:45:43;;;;;;;15.00;11.80;;;;;;;8.68;100.00;100121.52;88347;277;137483;-70
2023/11/08 03:47:44;;;;;;;15.60;11.80;;;;;;;8.67;100.00;100115.75;88534;273;28369;-73
2023/11/08 03:49:46;;;;;;;16.30;11.90;;;;;;;8.65;100.00;100114.61;88374;280;137094;-70
2023/11/08 03:51:51;;;;;;;20.70;13.30;;;;;;;8.54;100.00;100105.64;88497;277;25080;-71
2023/11/08 03:53:53;;;;;;;17.20;12.40;;;;;;;8.57;100.00;100120.30;88613;279;137429;-72
2023/11/08 03:55:54;;;;;;;17.40;11.30;;;;;;;8.54;100.00;100117.20;88454;281;22534;-74
2023/11/08 03:57:56;;;;;;;18.30;12.40;;;;;;;8.51;100.00;100114.52;88585;277;136768;-68
2023/11/08 03:59:58;;;;;;;18.00;11.90;;;;;;;8.51;100.00;100112.05;88539;281;25080;-71
2023/11/08 04:02:00;;;;;;;17.40;11.30;;;;;;;8.50;100.00;100105.19;88357;274;139251;-72
2023/11/08 04:04:01;;;;;;;15.20;12.90;;;;;;;8.51;100.00;100102.98;88613;281;22557;-69
2023/11/08 04:06:04;;;;;;;16.20;12.00;;;;;;;8.52;100.00;100102.88;88612;281;24167;-71
2023/11/08 04:08:07;;;;;;;16.20;12.10;;;;;;;8.54;100.00;100099.10;88448;281;138927;-73
2023/11/08 04:10:10;;;;;;;16.40;12.40;;;;;;;8.57;100.00;100098.42;88526;281;24052;-72
2023/11/08 04:12:12;;;;;;;20.00;12.00;;;;;;;8.60;100.00;100088.69;88484;278;138271;-72
2023/11/08 04:14:15;;;;;;;20.20;12.50;;;;;;;8.61;100.00;100081.27;88579;277;22530;-70
2023/11/08 04:16:17;;;;;;;19.20;12.50;;;;;;;8.62;100.00;100077.68;88470;273;137417;-71
2023/11/08 04:18:19;;;;;;;20.20;14.60;;;;;;;8.61;100.00;100072.77;88599;280;22526;-71
2023/11/08 04:20:21;;;;;;;20.70;15.20;;;;;;;8.63;100.00;100073.45;88347;280;137404;-69
2023/11/08 04:22:23;;;;;;;22.30;17.20;;;;;;;8.64;100.00;100067.30;88580;273;25080;-69
2023/11/08 04:24:26;;;;;;;24.20;16.10;;;;;;;8.66;100.00;100060.73;88386;277;138832;-71
2023/11/08 04:26:30;;;;;;;27.10;23.20;;;;;;;8.68;100.00;100063.63;88565;273;24080;-70
2023/11/08 04:28:32;;;;;;;34.50;29.30;;;;;;;8.71;100.00;100068.53;88412;277;137086;-68
2023/11/08 04:30:34;;;;;;;33.40;25.30;;;;;;;8.65;100.00;100061.42;88630;281;22537;-70
2023/11/08 04:32:37;;;;;;;35.20;26.10;;;;;;;8.72;100.00;100086.10;88418;281;137337;-72
2023/11/08 04:34:39;;;;;;;34.50;24.70;;;;;;;8.67;100.00;100089.54;88769;277;22547;-67
2023/11/08 04:36:41;;;;;;;29.90;21.70;;;;;;;8.62;100.00;100085.85;88594;273;138331;-67
2023/11/08 04:38:45;;;;;;;27.50;22.00;;;;;;;8.58;100.00;100084.79;88522;277;22602;-73
2023/11/08 04:40:47;;;;;;;28.20;20.40;;;;;;;8.56;100.00;100083.81;88465;277;137457;-72
2023/11/08 04:42:49;;;;;;;23.80;17.20;;;;;;;8.51;100.00;100076.21;88458;282;22537;-71
2023/11/08 04:44:51;;;;;;;21.50;15.70;;;;;;;8.46;100.00;100073.65;88343;274;137462;-70
2023/11/08 04:46:53;;;;;;;21.60;14.80;;;;;;;8.43;100.00;100072.30;90158;280;25424;-70
2023/11/08 04:48:55;;;;;;;22.00;16.10;;;;;;;8.39;100.00;100082.98;88552;282;138265;-72
2023/11/08 04:50:58;;;;;;;18.30;13.80;;;;;;;8.37;100.00;100086.38;88471;277;25183;-71
2023/11/08 04:53:02;;;;;;;15.70;11.60;;;;;;;8.35;100.00;100081.58;88333;273;138570;-69
2023/11/08 04:55:05;;;;;;;16.40;12.80;;;;;;;8.34;100.00;100087.17;88576;277;22549;-69
2023/11/08 04:57:07;;;;;;;15.10;12.00;;;;;;;8.35;100.00;100081.48;88569;273;138219;-69
2023/11/08 04:59:11;;;;;;;13.50;10.40;;;;;;;8.36;100.00;100083.47;88588;273;22786;-74
2023/11/08 05:01:13;;;;;;;11.60;10.20;;;;;;;8.37;100.00;100078.42;88369;273;137181;-73
2023/11/08 05:03:15;;;;;;;14.80;10.50;;;;;;;8.38;100.00;100081.26;88443;274;25134;-72
2023/11/08 05:05:17;;;;;;;13.80;10.70;;;;;;;8.40;100.00;100084.27;88542;273;137234;-72
2023/11/08 05:07:19;;;;;;;14.50;10.10;;;;;;;8.40;100.00;100085.52;88461;273;22535;-79
2023/11/08 05:09:21;;;;;;;12.20;9.60;;;;;;;8.41;100.00;100091.60;88368;273;138436;-72
2023/11/08 05:11:23;;;;;;;12.90;9.90;;;;;;;8.40;100.00;100088.48;88239;273;24280;-72
2023/11/08 05:13:25;;;;;;;16.10;10.40;;;;;;;8.33;100.00;100082.61;87913;276;136853;-72
2023/11/08 05:15:29;;;;;;;17.20;9.80;;;;;;;8.42;100.00;100096.94;88080;274;22631;-71
2023/11/08 05:17:31;;;;;;;12.90;8.90;;;;;;;8.44;100.00;100093.55;88577;274;137593;-72
2023/11/08 05:19:33;;;;;;;10.00;8.50;;;;;;;8.49;100.00;100085.73;88615;274;22568;-73
2023/11/08 05:21:35;;;;;;;16.40;9.10;;;;;;;8.43;100.00;100068.98;88004;274;136966;-72
2023/11/08 05:23:37;;;;;;;14.10;9.10;;;;;;;8.54;100.00;100073.80;88145;278;23968;-69
2023/11/08 05:25:40;;;;;;;13.90;9.60;;;;;;;8.56;100.00;100061.45;88032;273;137230;-72
2023/11/08 05:27:41;;;;;;;12.30;9.00;;;;;;;8.59;100.00;100058.08;88134;275;22531;-72
2023/11/08 05:29:43;;;;;;;11.50;9.30;;;;;;;8.64;100.00;100056.54;87941;274;136751;-72
2023/11/08 05:31:47;;;;;;;10.70;7.90;;;;;;;8.66;100.00;100056.07;88246;274;24949;-71
2023/11/08 05:33:53;;;;;;;14.80;9.70;;;;;;;8.67;100.00;100057.52;88008;273;137227;-72
2023/11/08 05:35:56;;;;;;;12.00;8.40;;;;;;;8.65;100.00;100054.96;88170;274;24027;-72
2023/11/08 05:37:58;;;;;;;13.10;8.50;;;;;;;8.71;100.00;100053.13;87964;275;137998;-69
2023/11/08 05:40:00;;;;;;;12.50;8.80;;;;;;;8.74;100.00;100051.77;88096;274;22513;-72
2023/11/08 05:42:02;;;;;;;10.70;8.70;;;;;;;8.79;100.00;100058.99;88577;274;136826;-72
2023/11/08 05:44:04;;;;;;;13.40;8.80;;;;;;;8.84;100.00;100060.36;88044;274;137430;-77
2023/11/08 05:46:06;;;;;;;12.80;9.30;;;;;;;8.86;100.00;100064.70;88240;277;26241;-76
2023/11/08 05:48:08;;;;;;;18.90;9.50;;;;;;;8.89;100.00;100070.13;88013;277;137863;-75
2023/11/08 05:50:10;;;;;;;11.80;9.00;;;;;;;8.91;100.00;100061.07;88127;277;25077;-75
2023/11/08 05:52:13;;;;;;;15.30;10.00;;;;;;;8.93;100.00;100065.97;88113;277;138550;-71
2023/11/08 05:54:15;;;;;;;13.90;9.60;;;;;;;8.95;100.00;100068.91;88221;274;22615;-78
2023/11/08 05:56:18;;;;;;;16.80;9.40;;;;;;;8.97;100.00;100077.20;88182;282;137787;-72
2023/11/08 05:58:20;;;;;;;13.10;9.30;;;;;;;8.84;100.00;100050.36;88562;275;24033;-80
2023/11/08 06:00:22;;;;;;;14.00;9.60;;;;;;;8.98;100.00;100070.05;88763;277;137107;-73
2023/11/08 06:02:24;;;;;;;15.90;10.30;;;;;;;9.00;100.00;100063.04;88264;274;25148;-79
2023/11/08 06:04:26;;;;;;;14.10;10.80;;;;;;;8.99;100.00;100055.71;88063;273;137430;-72
2023/11/08 06:06:28;;;;;;;12.30;9.70;;;;;;;9.02;100.00;100055.53;88182;282;22527;-73
2023/11/08 06:08:30;;;;;;;15.80;9.20;;;;;;;9.04;100.00;100063.05;88017;275;137270;-72
2023/11/08 06:10:33;;;;;;;16.00;10.30;;;;;;;9.03;100.00;100065.67;88043;274;23742;-72
2023/11/08 06:12:35;;;;;;;15.00;10.40;;;;;;;9.04;100.00;100071.20;88767;277;139179;-73
2023/11/08 06:14:37;;;;;;;16.80;10.00;;;;;;;9.03;100.00;100065.79;88146;281;22545;-72
2023/11/08 06:16:40;;;;;;;16.60;12.00;;;;;;;9.03;100.00;100058.95;88197;277;138672;-74
2023/11/08 06:18:42;;;;;;;12.90;10.20;;;;;;;9.02;100.00;100055.95;88330;273;23791;-73
2023/11/08 06:20:44;;;;;;;15.70;11.10;;;;;;;9.05;100.00;100056.42;88247;273;138783;-74
2023/11/08 06:22:47;;;;;;;13.50;10.70;;;;;;;9.07;100.00;100057.56;88245;274;22923;-74
2023/11/08 06:24:49;;;;;;;15.90;10.40;;;;;;;9.09;100.00;100053.95;88320;274;138200;-74
2023/11/08 06:26:51;;;;;;;16.60;10.00;;;;;;;9.11;100.00;100048.90;88098;279;22622;-73
2023/11/08 06:28:53;;;;;;;14.30;11.20;;;;;;;9.14;100.00;100049.27;88132;279;139399;-75
2023/11/08 06:30:55;;;;;;;18.90;11.70;;;;;;;9.15;100.00;100041.64;88897;277;22537;-73
2023/11/08 06:32:58;;;;;;;13.70;10.10;;;;;;;9.18;100.00;100040.67;88188;275;137410;-71
2023/11/08 06:35:02;;;;;;;14.10;10.30;;;;;;;9.17;100.00;100036.13;88439;274;22554;-74
2023/11/08 06:37:04;;;;;;;15.40;11.30;;;;;;;9.15;100.00;100037.79;88275;273;137460;-72
2023/11/08 06:39:14;;;;;;;12.50;11.10;;;;;;;9.13;100.00;100042.05;88383;273;26330;-73
2023/11/08 06:41:16;;;;;;;16.00;11.50;;;;;;;9.12;100.00;100041.96;88382;273;137200;-70
2023/11/08 06:43:18;;;;;;;16.20;11.10;;;;;;;9.11;100.00;100034.02;88532;273;22641;-76
2023/11/08 06:45:20;;;;;;;16.70;11.90;;;;;;;9.13;100.00;100031.39;88233;280;137631;-73
2023/11/08 06:47:22;;;;;;;15.60;11.60;;;;;;;9.15;100.00;100029.81;88336;277;23840;-75
2023/11/08 06:49:23;;;;;;;17.00;10.90;;;;;;;9.15;100.00;100024.30;88293;280;138667;-72
2023/11/08 06:51:26;;;;;;;17.20;13.00;;;;;;;9.15;100.00;100019.91;88479;273;26171;-73
2023/11/08 06:53:27;;;;;;;17.30;11.70;;;;;;;9.14;100.00;100015.52;88194;278;136891;-78
2023/11/08 06:55:32;;;;;;;15.60;12.70;;;;;;;9.12;100.00;100013.23;88351;275;25270;-73
2023/11/08 06:57:41;;;;;;;18.90;12.20;;;;;;;9.13;100.00;100004.86;88221;274;137943;-74
2023/11/08 06:59:43;;;;;;;14.90;12.10;;;;;;;9.15;100.00;99998.59;88271;275;24357;-74
2023/11/08 07:01:45;;;;;;;15.70;12.60;;;;;;;9.16;100.00;99992.84;88659;276;137076;-77
2023/11/08 07:03:47;;;;;;;18.10;12.50;;;;;;;9.15;100.00;99986.54;88336;274;22498;-72
2023/11/08 07:05:49;;;;;;;15.50;12.50;;;;;;;9.13;100.00;99981.40;88227;275;137361;-73
2023/11/08 07:07:50;;;;;;;16.90;11.80;;;;;;;9.10;100.00;99976.83;88200;275;22530;-74
2023/11/08 07:09:53;;;;;;;13.90;11.00;;;;;;;9.09;100.00;99973.23;88108;275;137698;-73
2023/11/08 07:11:55;;;;;;;16.30;12.20;;;;;;;9.08;100.00;99973.56;88334;275;22605;-73
2023/11/08 07:13:57;;;;;;;15.40;12.70;;;;;;;9.07;100.00;99972.08;88444;274;136981;-75
2023/11/08 07:16:01;;;;;;;20.00;16.30;;;;;;;9.05;100.00;99966.63;88237;275;23182;-75
2023/11/08 07:18:03;;;;;;;28.40;17.60;;;;;;;9.02;100.00;99964.03;88438;277;22533;-72
2023/11/08 07:20:07;;;;;;;18.90;16.80;;;;;;;8.98;100.00;99962.24;90020;273;137508;-75
2023/11/08 07:22:09;;;;;;;23.20;18.20;;;;;;;8.96;100.00;99966.52;88608;281;22544;-72
2023/11/08 07:24:11;;;;;;;21.90;16.30;;;;;;;8.92;100.00;99975.14;88460;273;138609;-73
2023/11/08 07:26:15;;;;;;;17.80;14.80;;;;;;;8.86;100.00;99975.67;88350;275;24055;-73
2023/11/08 07:28:18;;;;;;;19.00;16.00;;;;;;;8.82;100.00;99981.02;88394;281;137397;-75
2023/11/08 07:30:20;;;;;;;17.00;13.70;;;;;;;8.76;100.00;99980.13;88495;273;22549;-74
2023/11/08 07:32:23;;;;;;;21.50;14.00;;;;;;;8.72;100.00;99977.88;89049;282;136815;-75
2023/11/08 07:34:25;;;;;;;17.70;14.70;;;;;;;8.70;100.00;99974.98;89006;278;22553;-73
2023/11/08 07:36:29;;;;;;;14.90;12.60;;;;;;;8.69;100.00;99966.81;88488;280;137258;-72
2023/11/08 07:38:32;;;;;;;20.70;13.20;;;;;;;8.68;100.00;99963.69;88604;277;22421;-72
2023/11/08 07:40:34;;;;;;;16.90;13.10;;;;;;;8.70;100.00;99958.91;88522;277;137042;-72
2023/11/08 07:42:38;;;;;;;16.40;12.80;;;;;;;8.70;100.00;99961.74;88421;277;22860;-70
2023/11/08 07:44:40;;;;;;;18.90;13.40;;;;;;;8.70;100.00;99962.56;88524;274;137138;-73
2023/11/08 07:46:41;;;;;;;18.70;13.20;;;;;;;8.69;100.00;99960.19;88454;273;24243;-71
2023/11/08 07:48:43;;;;;;;17.10;12.10;;;;;;;8.67;100.00;99951.80;88262;273;138133;-71
2023/11/08 07:50:45;;;;;;;18.20;14.20;;;;;;;8.65;100.00;99943.58;88864;281;25250;-74
2023/11/08 07:52:47;;;;;;;23.10;13.60;;;;;;;8.63;100.00;99931.95;88331;273;137318;-73
2023/11/08 07:54:49;;;;;;;16.50;11.60;;;;;;;8.62;100.00;99925.80;88588;274;24061;-72
2023/11/08 07:56:51;;;;;;;19.30;12.60;;;;;;;8.61;100.00;99923.80;88237;278;137091;-72
2023/11/08 07:58:53;;;;;;;17.70;12.50;;;;;;;8.62;100.00;99917.63;88367;275;23349;-76
2023/11/08 08:00:55;;;;;;;15.70;13.40;;;;;;;8.65;100.00;99914.02;88324;275;137175;-73
2023/11/08 08:02:57;;;;;;;15.60;13.00;;;;;;;8.65;100.00;99912.89;88447;281;25102;-75
2023/11/08 08:05:00;;;;;;;16.70;13.00;;;;;;;8.67;100.00;99914.09;88444;280;137393;-74
2023/11/08 08:07:05;;;;;;;16.70;13.40;;;;;;;8.66;100.00;99915.17;88481;273;22536;-73
2023/11/08 08:09:14;;;;;;;21.00;13.20;;;;;;;8.66;100.00;99912.06;88439;282;137791;-73
2023/11/08 08:11:17;;;;;;;15.80;13.20;;;;;;;8.65;100.00;99912.88;88533;273;22547;-70
2023/11/08 08:13:20;;;;;;;17.20;13.70;;;;;;;8.66;100.00;99904.60;88306;275;139498;-73
2023/11/08 08:15:33;;;;;;;20.00;13.10;;;;;;;8.69;100.00;99897.98;88439;273;22604;-70
2023/11/08 08:17:35;;;;;;;16.50;12.40;;;;;;;8.74;100.00;99891.56;88364;273;137194;-71
2023/11/08 08:19:37;;;;;;;18.90;13.80;;;;;;;8.77;100.00;99892.50;88697;273;22544;-72
2023/11/08 08:21:39;;;;;;;16.50;13.20;;;;;;;8.79;100.00;99897.01;88230;278;137095;-74
2023/11/08 08:23:41;;;;;;;18.20;14.20;;;;;;;8.82;100.00;99897.17;88320;278;22551;-73
2023/11/08 08:25:52;;;;;;;14.90;13.10;;;;;;;8.86;100.00;99895.12;88315;278;137696;-71
2023/11/08 08:27:54;;;;;;;17.20;14.80;;;;;;;8.89;100.00;99891.15;88416;279;22791;-73
2023/11/08 08:29:56;;;;;;;20.10;14.90;;;;;;;8.93;100.00;99883.39;88366;274;137003;-74
2023/11/08 08:31:58;;;;;;;20.20;15.80;;;;;;;8.97;100.00;99880.64;88404;281;22543;-75
2023/11/08 08:34:00;;;;;;;22.70;15.90;;;;;;;9.00;100.00;99877.48;88206;283;139472;-74
2023/11/08 08:36:03;;;;;;;22.70;18.00;;;;;;;9.02;100.00;99879.79;88280;275;24891;-73
2023/11/08 08:38:05;;;;;;;23.00;17.60;;;;;;;9.03;100.00;99881.73;88508;281;25244;-74
2023/11/08 08:40:10;;;;;;;28.10;21.20;;;;;;;9.00;100.00;99886.80;88263;274;137420;-73
2023/11/08 08:42:13;;;;;;;26.70;20.40;;;;;;;8.99;100.00;99887.04;89961;277;22531;-76
2023/11/08 08:44:14;;;;;;;25.10;19.80;;;;;;;8.95;100.00;99880.64;88493;281;140308;-70
2023/11/08 08:46:16;;;;;;;31.50;23.60;;;;;;;8.93;100.00;99875.09;88518;277;22585;-74
2023/11/08 08:48:18;;;;;;;28.20;22.70;;;;;;;8.92;100.00;99875.02;88415;281;137430;-73
2023/11/08 08:50:20;;;;;;;31.70;23.20;;;;;;;8.91;100.00;99877.13;88442;281;22556;-75
2023/11/08 08:52:23;;;;;;;31.70;24.10;;;;;;;8.92;100.00;99881.58;88371;273;136974;-73
2023/11/08 08:54:25;;;;;;;30.00;22.20;;;;;;;8.96;100.00;99876.19;88806;273;24052;-75
2023/11/08 08:56:28;;;;;;;27.90;22.80;;;;;;;8.91;100.00;99857.30;88403;273;137259;-75
2023/11/08 08:58:32;;;;;;;29.70;23.10;;;;;;;8.98;100.00;99856.85;88458;278;25243;-75
2023/11/08 09:00:35;;;;;;;25.00;20.80;;;;;;;8.99;100.00;99860.34;88263;273;137083;-72
2023/11/08 09:02:37;;;;;;;24.10;17.80;;;;;;;8.99;100.00;99856.95;88448;276;25421;-75
2023/11/08 09:04:44;;;;;;;21.10;16.30;;;;;;;8.99;100.00;99853.51;88365;281;138523;-75
2023/11/08 09:06:45;;;;;;;19.70;14.60;;;;;;;8.97;100.00;99846.73;88411;275;22855;-71
2023/11/08 09:08:48;;;;;;;17.60;14.90;;;;;;;8.97;100.00;99844.70;88165;275;137217;-72
2023/11/08 09:10:49;;;;;;;20.40;15.70;;;;;;;8.95;100.00;99839.56;88582;273;22528;-72
2023/11/08 09:12:51;;;;;;;28.30;24.00;;;;;;;8.95;100.00;99835.11;87914;274;136811;-74
2023/11/08 09:14:53;;;;;;;34.70;26.00;;;;;;;8.95;100.00;99821.34;88549;278;25385;-75
2023/11/08 09:16:57;;;;;;;35.60;27.20;;;;;;;8.95;100.00;99811.06;88316;275;136917;-71
2023/11/08 09:18:59;;;;;;;32.10;24.10;;;;;;;8.95;100.00;99800.56;88550;273;22631;-72
2023/11/08 09:21:03;;;;;;;29.40;22.10;;;;;;;8.94;100.00;99799.81;88296;275;137087;-73
2023/11/08 09:23:05;;;;;;;30.30;21.70;;;;;;;8.91;100.00;99796.66;88355;279;22534;-74
2023/11/08 09:25:09;;;;;;;28.70;21.90;;;;;;;8.88;100.00;99799.71;88313;278;137065;-74
2023/11/08 09:27:12;;;;;;;25.80;20.10;;;;;;;8.85;100.00;99799.89;88635;277;24625;-70